createdAt,value
2022-10-03T00:00:11.408Z,18.41
2022-10-03T00:02:37.742Z,18.40
2022-10-03T00:05:04.017Z,18.38
2022-10-03T00:07:30.251Z,18.37
2022-10-03T00:09:56.461Z,18.35
2022-10-03T00:12:22.780Z,18.33
2022-10-03T00:14:49.007Z,18.31
2022-10-03T00:17:15.349Z,18.29
2022-10-03T00:19:41.886Z,18.27
2022-10-03T00:22:08.201Z,18.25
2022-10-03T00:24:34.489Z,18.23
2022-10-03T00:27:00.992Z,18.20
2022-10-03T00:29:27.192Z,18.19
2022-10-03T00:31:53.455Z,18.18
2022-10-03T00:34:19.835Z,18.18
2022-10-03T00:36:46.208Z,18.17
2022-10-03T00:39:12.556Z,18.16
2022-10-03T00:41:39.292Z,18.13
2022-10-03T00:44:05.772Z,18.13
2022-10-03T00:46:32.170Z,18.12
2022-10-03T00:48:58.375Z,18.11
2022-10-03T00:51:25.088Z,18.10
2022-10-03T00:53:51.634Z,18.10
2022-10-03T00:56:17.958Z,18.10
2022-10-03T00:58:44.287Z,18.07
2022-10-03T01:01:10.573Z,18.07
2022-10-03T01:03:37.359Z,18.11
2022-10-03T01:06:03.910Z,18.13
2022-10-03T01:08:30.140Z,18.13
2022-10-03T01:10:56.575Z,18.13
2022-10-03T01:13:22.897Z,18.13
2022-10-03T01:15:49.198Z,18.11
2022-10-03T01:18:15.458Z,18.09
2022-10-03T01:20:42.462Z,18.08
2022-10-03T01:23:08.778Z,18.05
2022-10-03T01:25:35.009Z,18.04
2022-10-03T01:28:01.592Z,18.03
2022-10-03T01:30:27.837Z,18.03
2022-10-03T01:32:54.100Z,18.01
2022-10-03T01:35:20.344Z,18.02
2022-10-03T01:37:46.618Z,18.01
2022-10-03T01:40:12.865Z,18.01
2022-10-03T01:42:39.116Z,18.01
2022-10-03T01:45:05.579Z,17.99
2022-10-03T01:47:32.489Z,17.97
2022-10-03T01:49:59.443Z,17.97
2022-10-03T01:52:25.704Z,17.98
2022-10-03T01:54:52.516Z,17.98
2022-10-03T01:57:18.758Z,17.99
2022-10-03T01:59:45.367Z,17.98
2022-10-03T02:02:11.687Z,17.97
2022-10-03T02:04:37.990Z,17.97
2022-10-03T02:07:04.205Z,17.97
2022-10-03T02:09:30.369Z,17.98
2022-10-03T02:11:56.597Z,17.97
2022-10-03T02:14:23.210Z,17.96
2022-10-03T02:16:49.841Z,17.96
2022-10-03T02:19:16.142Z,17.95
2022-10-03T02:21:42.716Z,17.96
2022-10-03T02:24:09.557Z,17.95
2022-10-03T02:26:35.837Z,17.96
2022-10-03T02:29:02.288Z,17.95
2022-10-03T02:31:28.578Z,17.95
2022-10-03T02:33:57.044Z,17.93
2022-10-03T02:36:23.302Z,17.94
2022-10-03T02:38:49.508Z,17.93
2022-10-03T02:41:16.054Z,17.93
2022-10-03T02:43:42.626Z,17.93
2022-10-03T02:46:09.169Z,17.92
2022-10-03T02:48:35.416Z,17.92
2022-10-03T02:51:01.799Z,17.91
2022-10-03T02:53:28.259Z,17.91
2022-10-03T02:55:55.037Z,17.90
2022-10-03T02:58:21.253Z,17.89
2022-10-03T03:00:47.793Z,17.87
2022-10-03T03:03:14.245Z,17.86
2022-10-03T03:05:40.627Z,17.85
2022-10-03T03:08:06.907Z,17.83
2022-10-03T03:10:33.517Z,17.84
2022-10-03T03:12:59.879Z,17.83
2022-10-03T03:15:26.137Z,17.82
2022-10-03T03:17:52.495Z,17.82
2022-10-03T03:20:18.930Z,17.81
2022-10-03T03:22:45.177Z,17.80
2022-10-03T03:25:11.443Z,17.81
2022-10-03T03:27:37.647Z,17.79
2022-10-03T03:30:03.865Z,17.79
2022-10-03T03:32:30.234Z,17.77
2022-10-03T03:34:56.519Z,17.77
2022-10-03T03:37:22.737Z,17.77
2022-10-03T03:39:48.999Z,17.78
2022-10-03T03:42:15.250Z,17.78
2022-10-03T03:44:41.493Z,17.78
2022-10-03T03:47:07.755Z,17.83
2022-10-03T03:49:34.174Z,17.88
2022-10-03T03:52:00.585Z,17.93
2022-10-03T03:54:26.883Z,18.00
2022-10-03T03:56:53.092Z,18.07
2022-10-03T03:59:19.341Z,18.15
2022-10-03T04:01:45.575Z,18.23
2022-10-03T04:04:11.876Z,18.32
2022-10-03T04:06:38.082Z,18.39
2022-10-03T04:09:04.325Z,18.46
2022-10-03T04:11:30.626Z,18.51
2022-10-03T04:13:57.097Z,18.55
2022-10-03T04:16:23.369Z,18.59
2022-10-03T04:18:49.589Z,18.64
2022-10-03T04:21:19.164Z,18.68
2022-10-03T04:23:45.563Z,18.70
2022-10-03T04:26:11.750Z,18.73
2022-10-03T04:28:38.762Z,18.72
2022-10-03T04:31:04.975Z,18.72
2022-10-03T04:33:31.402Z,18.71
2022-10-03T04:35:57.741Z,18.72
2022-10-03T04:38:23.942Z,18.70
2022-10-03T04:40:50.224Z,18.68
2022-10-03T04:43:16.442Z,18.67
2022-10-03T04:45:43.013Z,18.65
2022-10-03T04:48:09.258Z,18.63
2022-10-03T04:50:35.445Z,18.60
2022-10-03T04:53:02.135Z,18.57
2022-10-03T04:55:28.543Z,18.56
2022-10-03T04:57:54.985Z,18.55
2022-10-03T05:00:21.495Z,18.53
2022-10-03T05:02:48.007Z,18.51
2022-10-03T05:05:14.498Z,18.49
2022-10-03T05:07:41.131Z,18.47
2022-10-03T05:10:11.472Z,18.45
2022-10-03T05:12:39.629Z,18.43
2022-10-03T05:15:06.100Z,18.43
2022-10-03T05:17:34.885Z,18.41
2022-10-03T05:20:01.110Z,18.41
2022-10-03T05:22:27.355Z,18.40
2022-10-03T05:24:53.592Z,18.38
2022-10-03T05:27:19.856Z,18.36
2022-10-03T05:29:46.153Z,18.34
2022-10-03T05:32:12.679Z,18.34
2022-10-03T05:34:38.985Z,18.32
2022-10-03T05:37:05.212Z,18.29
2022-10-03T05:39:31.435Z,18.27
2022-10-03T05:42:21.057Z,18.27
2022-10-03T05:44:43.914Z,18.25
2022-10-03T05:47:10.153Z,18.24
2022-10-03T05:49:36.335Z,18.22
2022-10-03T05:52:02.560Z,18.20
2022-10-03T05:54:29.067Z,18.20
2022-10-03T05:56:55.362Z,18.18
2022-10-03T05:59:24.035Z,18.18
2022-10-03T06:01:50.415Z,18.16
2022-10-03T06:04:16.722Z,18.17
2022-10-03T06:06:42.925Z,18.19
2022-10-03T06:09:09.254Z,18.22
2022-10-03T06:11:35.607Z,18.26
2022-10-03T06:14:02.031Z,18.29
2022-10-03T06:16:28.282Z,18.36
2022-10-03T06:18:54.679Z,18.42
2022-10-03T06:21:20.900Z,18.48
2022-10-03T06:23:47.114Z,18.54
2022-10-03T06:26:13.414Z,18.61
2022-10-03T06:28:40.478Z,18.74
2022-10-03T06:31:06.742Z,18.84
2022-10-03T06:33:33.045Z,18.93
2022-10-03T06:35:59.247Z,19.01
2022-10-03T06:38:25.435Z,19.08
2022-10-03T06:40:51.631Z,19.14
2022-10-03T06:43:17.992Z,19.17
2022-10-03T06:45:45.553Z,19.21
2022-10-03T06:48:11.782Z,19.23
2022-10-03T06:50:38.361Z,19.28
2022-10-03T06:53:04.906Z,19.31
2022-10-03T06:55:31.145Z,19.32
2022-10-03T06:57:57.365Z,19.34
2022-10-03T07:00:23.730Z,19.36
2022-10-03T07:02:50.048Z,19.36
2022-10-03T07:05:16.455Z,19.38
2022-10-03T07:07:42.712Z,19.40
2022-10-03T07:10:11.131Z,19.44
2022-10-03T07:12:37.394Z,19.48
2022-10-03T07:15:03.893Z,19.48
2022-10-03T07:17:30.338Z,19.52
2022-10-03T07:19:56.631Z,19.53
2022-10-03T07:22:22.838Z,19.55
2022-10-03T07:24:49.399Z,19.56
2022-10-03T07:27:15.711Z,19.56
2022-10-03T07:29:41.942Z,19.55
2022-10-03T07:32:08.134Z,19.56
2022-10-03T07:34:34.389Z,19.56
2022-10-03T07:37:01.227Z,19.56
2022-10-03T07:39:27.442Z,19.56
2022-10-03T07:41:53.732Z,19.57
2022-10-03T07:44:20.033Z,19.59
2022-10-03T07:46:46.884Z,19.60
2022-10-03T07:49:18.266Z,19.62
2022-10-03T07:51:44.933Z,19.64
2022-10-03T07:54:11.176Z,19.68
2022-10-03T07:56:37.480Z,19.70
2022-10-03T07:59:04.195Z,19.72
2022-10-03T08:01:30.393Z,19.72
2022-10-03T08:03:57.040Z,19.72
2022-10-03T08:06:23.342Z,19.75
2022-10-03T08:08:50.280Z,19.74
2022-10-03T08:11:17.413Z,19.75
2022-10-03T08:13:43.680Z,19.74
2022-10-03T08:16:11.092Z,19.74
2022-10-03T08:18:37.392Z,19.70
2022-10-03T08:21:04.095Z,19.69
2022-10-03T08:23:30.359Z,19.68
2022-10-03T08:25:57.334Z,19.66
2022-10-03T08:28:24.261Z,19.67
2022-10-03T08:30:50.607Z,19.69
2022-10-03T08:33:17.063Z,19.69
2022-10-03T08:35:43.279Z,19.73
2022-10-03T08:38:09.593Z,19.85
2022-10-03T08:40:36.689Z,20.83
2022-10-03T08:43:04.024Z,20.50
2022-10-03T08:45:30.320Z,20.37
2022-10-03T08:47:56.564Z,20.07
2022-10-03T08:50:22.799Z,19.95
2022-10-03T08:52:48.993Z,19.87
2022-10-03T08:55:15.303Z,19.84
2022-10-03T08:57:41.492Z,19.81
2022-10-03T09:00:08.157Z,19.78
2022-10-03T09:02:34.505Z,19.79
2022-10-03T09:05:00.775Z,19.76
2022-10-03T09:10:10.819Z,19.81
2022-10-03T09:12:37.377Z,19.87
2022-10-03T09:15:04.024Z,19.89
2022-10-03T09:17:31.113Z,19.90
2022-10-03T09:19:57.388Z,19.94
2022-10-03T09:22:23.930Z,19.95
2022-10-03T09:24:50.173Z,20.00
2022-10-03T09:27:16.527Z,20.06
2022-10-03T09:29:43.005Z,20.07
2022-10-03T09:32:10.274Z,20.11
2022-10-03T09:34:36.485Z,20.17
2022-10-03T09:37:06.184Z,20.22
2022-10-03T09:39:32.379Z,20.31
2022-10-03T09:41:58.789Z,20.36
2022-10-03T09:44:25.034Z,20.47
2022-10-03T09:46:51.312Z,20.54
2022-10-03T09:49:17.839Z,20.62
2022-10-03T09:51:44.698Z,20.72
2022-10-03T09:54:11.026Z,20.82
2022-10-03T09:56:37.567Z,20.94
2022-10-03T09:59:04.031Z,21.03
2022-10-03T10:01:30.798Z,21.10
2022-10-03T10:03:57.216Z,21.23
2022-10-03T10:06:24.945Z,21.29
2022-10-03T10:08:51.447Z,21.30
2022-10-03T10:11:17.745Z,21.36
2022-10-03T10:14:06.257Z,21.42
2022-10-03T10:16:30.412Z,21.51
2022-10-03T10:18:56.802Z,21.55
2022-10-03T10:21:23.131Z,21.61
2022-10-03T10:23:49.653Z,21.63
2022-10-03T10:26:15.986Z,21.65
2022-10-03T10:28:42.198Z,21.67
2022-10-03T10:31:09.126Z,21.66
2022-10-03T10:33:35.673Z,21.65
2022-10-03T10:36:02.361Z,21.66
2022-10-03T10:38:28.620Z,21.71
2022-10-03T10:40:54.897Z,21.67
2022-10-03T10:43:21.208Z,21.63
2022-10-03T10:45:47.556Z,21.61
2022-10-03T10:48:13.767Z,21.60
2022-10-03T10:50:40.208Z,21.58
2022-10-03T10:53:06.492Z,21.57
2022-10-03T10:55:32.862Z,21.55
2022-10-03T10:57:59.095Z,21.56
2022-10-03T11:00:25.425Z,21.57
2022-10-03T11:02:51.700Z,21.60
2022-10-03T11:05:18.105Z,21.60
2022-10-03T11:07:45.763Z,21.60
2022-10-03T11:10:12.137Z,21.61
2022-10-03T11:12:38.336Z,21.62
2022-10-03T11:15:04.583Z,21.61
2022-10-03T11:17:31.090Z,21.61
2022-10-03T11:19:57.302Z,21.61
2022-10-03T11:22:23.573Z,21.67
2022-10-03T11:24:49.835Z,21.79
2022-10-03T11:27:16.046Z,21.82
2022-10-03T11:29:42.434Z,21.84
2022-10-03T11:32:09.264Z,21.91
2022-10-03T11:34:36.057Z,21.97
2022-10-03T11:37:02.263Z,22.01
2022-10-03T11:39:28.658Z,22.06
2022-10-03T11:41:55.524Z,22.11
2022-10-03T11:44:22.207Z,22.11
2022-10-03T11:46:48.494Z,22.08
2022-10-03T11:49:14.772Z,22.03
2022-10-03T11:51:41.135Z,22.01
2022-10-03T11:54:29.418Z,21.99
2022-10-03T11:56:54.201Z,21.99
2022-10-03T11:59:26.031Z,22.01
2022-10-03T12:01:53.383Z,22.02
2022-10-03T12:04:19.782Z,21.96
2022-10-03T12:06:46.257Z,21.95
2022-10-03T12:09:12.479Z,21.92
2022-10-03T12:11:39.463Z,21.92
2022-10-03T12:14:10.739Z,21.92
2022-10-03T12:16:37.605Z,21.93
2022-10-03T12:19:04.193Z,21.98
2022-10-03T12:21:30.558Z,22.02
2022-10-03T12:23:56.791Z,22.02
2022-10-03T12:26:23.015Z,22.02
2022-10-03T12:28:49.363Z,22.05
2022-10-03T12:31:18.954Z,22.10
2022-10-03T12:33:45.665Z,22.06
2022-10-03T12:36:12.164Z,22.04
2022-10-03T12:38:38.439Z,22.02
2022-10-03T12:41:05.796Z,22.02
2022-10-03T12:43:33.060Z,22.02
2022-10-03T12:45:59.422Z,22.04
2022-10-03T12:48:25.746Z,21.88
2022-10-03T12:50:52.077Z,22.02
2022-10-03T12:53:18.298Z,22.01
2022-10-03T12:55:44.850Z,21.98
2022-10-03T12:58:11.118Z,21.97
2022-10-03T13:00:37.609Z,21.96
2022-10-03T13:03:04.193Z,21.95
2022-10-03T13:05:30.582Z,21.95
2022-10-03T13:07:58.183Z,21.95
2022-10-03T13:10:24.471Z,21.95
2022-10-03T13:12:50.664Z,21.95
2022-10-03T13:15:18.186Z,21.95
2022-10-03T13:17:45.019Z,21.95
2022-10-03T13:20:11.863Z,21.93
2022-10-03T13:22:38.114Z,21.92
2022-10-03T13:25:04.525Z,21.94
2022-10-03T13:27:31.011Z,21.94
2022-10-03T13:29:57.275Z,21.92
2022-10-03T13:32:25.081Z,21.92
2022-10-03T13:34:51.559Z,21.90
2022-10-03T13:37:19.344Z,21.89
2022-10-03T13:39:45.660Z,21.87
2022-10-03T13:42:12.009Z,21.85
2022-10-03T13:44:38.252Z,21.83
2022-10-03T13:47:18.240Z,21.84
2022-10-03T13:49:48.204Z,21.82
2022-10-03T13:52:14.800Z,21.85
2022-10-03T13:54:41.827Z,21.86
2022-10-03T13:57:09.155Z,21.86
2022-10-03T13:59:35.483Z,21.86
2022-10-03T14:02:02.680Z,21.83
2022-10-03T14:04:29.120Z,21.81
2022-10-03T14:06:56.868Z,21.81
2022-10-03T14:09:23.163Z,21.81
2022-10-03T14:11:49.469Z,21.80
2022-10-03T14:14:16.593Z,21.80
2022-10-03T14:16:44.722Z,21.79
2022-10-03T14:19:11.276Z,21.78
2022-10-03T14:21:38.057Z,21.77
2022-10-03T14:24:05.326Z,21.76
2022-10-03T14:26:31.815Z,21.75
2022-10-03T14:28:58.530Z,21.75
2022-10-03T14:31:24.983Z,21.73
2022-10-03T14:33:52.469Z,21.73
2022-10-03T14:36:19.216Z,21.71
2022-10-03T14:38:46.488Z,21.70
2022-10-03T14:41:12.811Z,21.69
2022-10-03T14:43:39.113Z,21.68
2022-10-03T14:46:05.523Z,21.65
2022-10-03T14:48:31.914Z,21.64
2022-10-03T14:50:58.277Z,21.63
2022-10-03T14:53:24.640Z,21.63
2022-10-03T14:55:50.926Z,21.63
2022-10-03T14:58:17.221Z,21.62
2022-10-03T15:00:44.792Z,21.60
2022-10-03T15:03:11.310Z,21.57
2022-10-03T15:05:37.669Z,21.57
2022-10-03T15:08:06.689Z,21.56
2022-10-03T15:10:33.033Z,21.56
2022-10-03T15:12:59.321Z,21.55
2022-10-03T15:15:25.921Z,21.54
2022-10-03T15:17:54.029Z,21.52
2022-10-03T15:20:20.759Z,21.51
2022-10-03T15:22:47.115Z,21.51
2022-10-03T15:25:13.474Z,21.50
2022-10-03T15:27:39.817Z,21.50
2022-10-03T15:30:06.758Z,21.50
2022-10-03T15:32:33.059Z,21.47
2022-10-03T15:34:59.438Z,21.46
2022-10-03T15:37:25.762Z,21.45
2022-10-03T15:39:53.813Z,21.43
2022-10-03T15:42:20.260Z,21.42
2022-10-03T15:44:46.535Z,21.40
2022-10-03T15:47:12.914Z,21.38
2022-10-03T15:49:39.298Z,21.37
2022-10-03T15:52:05.828Z,21.35
2022-10-03T15:54:32.300Z,21.33
2022-10-03T15:56:58.590Z,21.31
2022-10-03T15:59:24.890Z,21.30
2022-10-03T16:01:51.309Z,21.26
2022-10-03T16:04:18.625Z,21.23
2022-10-03T16:06:46.770Z,21.18
2022-10-03T16:09:13.112Z,21.14
2022-10-03T16:11:39.833Z,21.10
2022-10-03T16:14:07.352Z,21.04
2022-10-03T16:16:33.783Z,20.99
2022-10-03T16:19:00.235Z,20.95
2022-10-03T16:21:26.831Z,20.91
2022-10-03T16:23:53.301Z,20.88
2022-10-03T16:26:19.617Z,20.83
2022-10-03T16:28:47.159Z,20.79
2022-10-03T16:31:13.566Z,20.74
2022-10-03T16:33:41.690Z,20.68
2022-10-03T16:36:08.068Z,20.63
2022-10-03T16:38:34.598Z,20.57
2022-10-03T16:41:00.895Z,20.52
2022-10-03T16:43:27.244Z,20.45
2022-10-03T16:45:54.380Z,20.39
2022-10-03T16:48:21.302Z,20.34
2022-10-03T16:50:47.721Z,20.29
2022-10-03T16:53:14.052Z,20.22
2022-10-03T16:55:40.335Z,20.14
2022-10-03T16:58:06.645Z,20.08
2022-10-03T17:00:32.963Z,20.07
2022-10-03T17:02:59.466Z,20.07
2022-10-03T17:05:25.891Z,20.10
2022-10-03T17:07:52.182Z,20.12
2022-10-03T17:10:18.505Z,20.16
2022-10-03T17:12:44.755Z,20.20
2022-10-03T17:15:11.115Z,20.25
2022-10-03T17:17:37.384Z,20.33
2022-10-03T17:20:03.655Z,20.41
2022-10-03T17:22:29.987Z,20.47
2022-10-03T17:24:56.335Z,20.54
2022-10-03T17:27:22.922Z,20.64
2022-10-03T17:29:49.162Z,20.73
2022-10-03T17:32:15.893Z,20.79
2022-10-03T17:34:42.272Z,20.87
2022-10-03T17:37:08.565Z,20.92
2022-10-03T17:39:34.896Z,21.00
2022-10-03T17:42:01.201Z,21.05
2022-10-03T17:44:27.493Z,21.08
2022-10-03T17:46:53.814Z,21.14
2022-10-03T17:49:20.135Z,21.18
2022-10-03T17:51:46.472Z,21.21
2022-10-03T17:54:12.786Z,21.22
2022-10-03T17:56:40.234Z,21.22
2022-10-03T17:59:06.531Z,21.22
2022-10-03T18:01:33.143Z,21.22
2022-10-03T18:03:59.504Z,21.22
2022-10-03T18:06:25.913Z,21.20
2022-10-03T18:08:52.173Z,21.17
2022-10-03T18:11:20.723Z,21.15
2022-10-03T18:13:47.297Z,21.09
2022-10-03T18:16:13.599Z,21.04
2022-10-03T18:18:39.907Z,21.00
2022-10-03T18:21:06.866Z,20.97
2022-10-03T18:23:53.603Z,20.93
2022-10-03T18:26:20.614Z,20.87
2022-10-03T18:28:47.386Z,20.84
2022-10-03T18:31:13.939Z,20.82
2022-10-03T18:33:40.748Z,20.80
2022-10-03T18:36:07.057Z,20.77
2022-10-03T18:38:33.456Z,20.74
2022-10-03T18:40:59.797Z,20.72
2022-10-03T18:43:26.106Z,20.69
2022-10-03T18:45:52.542Z,20.65
2022-10-03T18:48:18.911Z,20.60
2022-10-03T18:50:45.218Z,20.57
2022-10-03T18:53:11.507Z,20.54
2022-10-03T18:55:37.858Z,20.51
2022-10-03T18:58:04.116Z,20.49
2022-10-03T19:00:30.431Z,20.46
2022-10-03T19:02:56.764Z,20.43
2022-10-03T19:05:23.013Z,20.28
2022-10-03T19:07:49.472Z,20.39
2022-10-03T19:10:15.959Z,20.37
2022-10-03T19:12:42.387Z,20.34
2022-10-03T19:15:09.134Z,20.32
2022-10-03T19:17:35.682Z,20.30
2022-10-03T19:20:02.280Z,20.27
2022-10-03T19:22:28.807Z,20.25
2022-10-03T19:24:58.842Z,20.24
2022-10-03T19:27:25.756Z,20.23
2022-10-03T19:29:52.124Z,20.07
2022-10-03T19:32:18.649Z,20.17
2022-10-03T19:34:45.378Z,20.15
2022-10-03T19:37:11.776Z,20.14
2022-10-03T19:39:38.302Z,20.12
2022-10-03T19:42:04.788Z,20.10
2022-10-03T19:44:31.131Z,20.09
2022-10-03T19:46:57.380Z,20.07
2022-10-03T19:49:23.742Z,20.06
2022-10-03T19:51:50.233Z,20.04
2022-10-03T19:54:16.512Z,20.03
2022-10-03T19:56:42.776Z,20.02
2022-10-03T19:59:09.353Z,20.01
2022-10-03T20:01:35.751Z,20.01
2022-10-03T20:04:02.283Z,19.98
2022-10-03T20:06:28.827Z,19.96
2022-10-03T20:08:55.243Z,19.96
2022-10-03T20:11:21.551Z,19.94
2022-10-03T20:13:47.964Z,19.94
2022-10-03T20:16:14.402Z,19.93
2022-10-03T20:18:40.788Z,19.93
2022-10-03T20:21:07.185Z,19.91
2022-10-03T20:23:33.523Z,19.89
2022-10-03T20:25:59.857Z,19.88
2022-10-03T20:28:26.270Z,19.87
2022-10-03T20:30:52.889Z,19.86
2022-10-03T20:33:19.189Z,19.83
2022-10-03T20:35:45.514Z,19.81
2022-10-03T20:38:12.616Z,19.81
2022-10-03T20:40:38.903Z,19.81
2022-10-03T20:43:05.286Z,19.79
2022-10-03T20:45:31.644Z,19.80
2022-10-03T20:47:57.901Z,19.78
2022-10-03T20:50:24.267Z,19.77
2022-10-03T20:52:50.576Z,19.76
2022-10-03T20:55:16.879Z,19.74
2022-10-03T20:57:43.199Z,19.73
2022-10-03T21:00:09.495Z,19.71
2022-10-03T21:02:36.512Z,19.70
2022-10-03T21:05:03.179Z,19.69
2022-10-03T21:07:29.638Z,19.68
2022-10-03T21:09:56.038Z,19.67
2022-10-03T21:12:22.408Z,19.66
2022-10-03T21:14:48.684Z,19.65
2022-10-03T21:17:15.036Z,19.63
2022-10-03T21:19:41.281Z,19.62
2022-10-03T21:22:07.594Z,19.61
2022-10-03T21:24:33.927Z,19.60
2022-10-03T21:27:00.200Z,19.59
2022-10-03T21:29:26.590Z,19.57
2022-10-03T21:31:52.941Z,19.54
2022-10-03T21:34:19.263Z,19.49
2022-10-03T21:36:45.694Z,19.44
2022-10-03T21:39:12.277Z,19.39
2022-10-03T21:41:38.853Z,19.34
2022-10-03T21:44:05.424Z,19.30
2022-10-03T21:46:31.863Z,19.26
2022-10-03T21:48:58.189Z,19.20
2022-10-03T21:51:24.518Z,19.16
2022-10-03T21:53:50.828Z,19.12
2022-10-03T21:56:17.280Z,19.09
2022-10-03T21:58:43.693Z,19.03
2022-10-03T22:01:10.113Z,19.00
2022-10-03T22:03:36.630Z,18.97
2022-10-03T22:06:03.100Z,18.92
2022-10-03T22:08:29.676Z,18.89
2022-10-03T22:10:56.010Z,18.85
2022-10-03T22:13:22.265Z,18.82
2022-10-03T22:15:48.619Z,18.78
2022-10-03T22:18:14.973Z,18.75
2022-10-03T22:20:41.512Z,18.72
2022-10-03T22:23:07.895Z,18.69
2022-10-03T22:25:34.171Z,18.66
2022-10-03T22:28:00.461Z,18.62
2022-10-03T22:30:30.041Z,18.58
2022-10-03T22:32:56.316Z,18.56
2022-10-03T22:35:22.598Z,18.52
2022-10-03T22:37:48.873Z,18.50
2022-10-03T22:40:15.689Z,18.48
2022-10-03T22:42:42.069Z,18.44
2022-10-03T22:45:08.323Z,18.41
2022-10-03T22:47:35.653Z,18.39
2022-10-03T22:50:02.158Z,18.37
2022-10-03T22:52:28.527Z,18.36
2022-10-03T22:54:54.826Z,18.33
2022-10-03T22:57:21.379Z,18.31
2022-10-03T22:59:47.642Z,18.29
2022-10-03T23:02:14.102Z,18.27
2022-10-03T23:04:40.584Z,18.25
2022-10-03T23:07:07.116Z,18.23
2022-10-03T23:09:33.581Z,18.20
2022-10-03T23:11:59.937Z,18.18
2022-10-03T23:14:26.322Z,18.17
2022-10-03T23:16:52.795Z,18.15
2022-10-03T23:19:19.139Z,18.13
2022-10-03T23:21:45.464Z,18.12
2022-10-03T23:24:17.405Z,17.94
2022-10-03T23:26:43.839Z,18.09
2022-10-03T23:29:10.227Z,18.07
2022-10-03T23:31:36.557Z,18.06
2022-10-03T23:34:02.962Z,18.05
2022-10-03T23:36:29.336Z,18.05
2022-10-03T23:38:55.674Z,18.03
2022-10-03T23:41:22.011Z,18.02
2022-10-03T23:43:48.290Z,17.99
2022-10-03T23:46:14.698Z,17.98
2022-10-03T23:48:41.062Z,17.97
2022-10-03T23:51:07.316Z,17.96
2022-10-03T23:53:34.114Z,17.95
2022-10-03T23:56:00.460Z,17.94
2022-10-03T23:58:26.723Z,17.93
